sensor_id;sensor_type;location;lat;lon;timestamp;P1;P2;P0
76045;PMS7003;64741;41.730;44.788;2022-12-07T00:04:52;4.6;4.2;3.2
76045;PMS7003;64741;41.730;44.788;2022-12-07T00:09:54;5;4.4;3.2
76045;PMS7003;64741;41.730;44.788;2022-12-07T00:14:54;6.2;4.6;3
76045;PMS7003;64741;41.730;44.788;2022-12-07T00:19:54;5.2;3.8;2.6
76045;PMS7003;64741;41.730;44.788;2022-12-07T00:24:50;3.8;3.4;2.6
76045;PMS7003;64741;41.730;44.788;2022-12-07T00:29:52;5.4;4.6;3.6
76045;PMS7003;64741;41.730;44.788;2022-12-07T00:34:52;4.4;4;2.6
76045;PMS7003;64741;41.730;44.788;2022-12-07T00:39:52;6;4.4;3.2
76045;PMS7003;64741;41.730;44.788;2022-12-07T00:44:18;4.4;3.8;3
76045;PMS7003;64741;41.730;44.788;2022-12-07T00:49:54;6;4.4;3.8
76045;PMS7003;64741;41.730;44.788;2022-12-07T00:54:50;5;4.2;2.8
76045;PMS7003;64741;41.730;44.788;2022-12-07T00:59:54;4.8;4.6;3.2
76045;PMS7003;64741;41.730;44.788;2022-12-07T01:04:50;5;4.2;3
76045;PMS7003;64741;41.730;44.788;2022-12-07T01:09:52;5;4.2;3.2
76045;PMS7003;64741;41.730;44.788;2022-12-07T01:14:54;4.8;4;2.8
76045;PMS7003;64741;41.730;44.788;2022-12-07T01:19:54;4;4;2.8
76045;PMS7003;64741;41.730;44.788;2022-12-07T01:24:56;4.8;4;2.8
76045;PMS7003;64741;41.730;44.788;2022-12-07T01:29:56;5.6;3.8;2.6
76045;PMS7003;64741;41.730;44.788;2022-12-07T01:34:56;3.4;2.8;2.2
76045;PMS7003;64741;41.730;44.788;2022-12-07T01:39:52;4.4;3.6;2.6
76045;PMS7003;64741;41.730;44.788;2022-12-07T01:49:36;5;3.2;2.4
76045;PMS7003;64741;41.730;44.788;2022-12-07T01:54:57;3.4;2.8;2
76045;PMS7003;64741;41.730;44.788;2022-12-07T02:00:00;4.8;3.8;2.6
76045;PMS7003;64741;41.730;44.788;2022-12-07T02:05:02;3.8;2.6;2.2
76045;PMS7003;64741;41.730;44.788;2022-12-07T02:09:56;3.8;3.2;2.4
76045;PMS7003;64741;41.730;44.788;2022-12-07T02:14:56;3.6;3;2.4
76045;PMS7003;64741;41.730;44.788;2022-12-07T02:20:00;3.2;3;1.8
76045;PMS7003;64741;41.730;44.788;2022-12-07T02:24:57;3.6;3.2;2.2
76045;PMS7003;64741;41.730;44.788;2022-12-07T02:29:54;3;2.6;2.4
76045;PMS7003;64741;41.730;44.788;2022-12-07T02:34:55;3.6;3.2;2.2
76045;PMS7003;64741;41.730;44.788;2022-12-07T02:39:57;5;3.6;2.2
76045;PMS7003;64741;41.730;44.788;2022-12-07T02:44:52;2.6;2.6;1.4
76045;PMS7003;64741;41.730;44.788;2022-12-07T02:49:56;3.4;2.4;1.6
76045;PMS7003;64741;41.730;44.788;2022-12-07T02:54:52;3;2.6;2
76045;PMS7003;64741;41.730;44.788;2022-12-07T02:59:59;4.8;2.8;2
76045;PMS7003;64741;41.730;44.788;2022-12-07T03:04:59;3.6;2.4;1.6
76045;PMS7003;64741;41.730;44.788;2022-12-07T03:10:00;4;3.4;2.4
76045;PMS7003;64741;41.730;44.788;2022-12-07T03:15:01;4.4;3.2;2
76045;PMS7003;64741;41.730;44.788;2022-12-07T03:19:32;5;3.2;2
76045;PMS7003;64741;41.730;44.788;2022-12-07T03:24:55;2.6;2.2;1.8
76045;PMS7003;64741;41.730;44.788;2022-12-07T03:29:58;4;3.4;2.2
76045;PMS7003;64741;41.730;44.788;2022-12-07T03:34:56;3;2;1.6
76045;PMS7003;64741;41.730;44.788;2022-12-07T03:39:57;3.2;2.6;1.4
76045;PMS7003;64741;41.730;44.788;2022-12-07T03:44:54;3.4;3;1.6
76045;PMS7003;64741;41.730;44.788;2022-12-07T03:49:55;3.2;2.8;1.8
76045;PMS7003;64741;41.730;44.788;2022-12-07T03:54:57;4.8;3.5;2.5
76045;PMS7003;64741;41.730;44.788;2022-12-07T03:59:56;4.6;3.8;2.6
76045;PMS7003;64741;41.730;44.788;2022-12-07T04:04:56;3.2;3;1.6
76045;PMS7003;64741;41.730;44.788;2022-12-07T04:09:56;3;2;1.2
76045;PMS7003;64741;41.730;44.788;2022-12-07T04:14:54;3.4;3.2;2.2
76045;PMS7003;64741;41.730;44.788;2022-12-07T04:19:58;3.2;2.4;1.8
76045;PMS7003;64741;41.730;44.788;2022-12-07T04:24:56;3.4;2.8;1.8
76045;PMS7003;64741;41.730;44.788;2022-12-07T04:29:54;3.8;3;1.8
76045;PMS7003;64741;41.730;44.788;2022-12-07T04:34:54;3.2;2;1.2
76045;PMS7003;64741;41.730;44.788;2022-12-07T04:39:40;4.4;3;2.2
76045;PMS7003;64741;41.730;44.788;2022-12-07T04:44:54;4;2.8;2
76045;PMS7003;64741;41.730;44.788;2022-12-07T04:49:54;3.8;3;1.8
76045;PMS7003;64741;41.730;44.788;2022-12-07T04:54:54;3.4;3.4;2.4
76045;PMS7003;64741;41.730;44.788;2022-12-07T04:59:58;2.8;2.6;1.6
76045;PMS7003;64741;41.730;44.788;2022-12-07T05:05:00;3.2;2.6;1.6
76045;PMS7003;64741;41.730;44.788;2022-12-07T05:09:58;2.8;2.8;1.8
76045;PMS7003;64741;41.730;44.788;2022-12-07T05:14:54;2.8;2.2;1
76045;PMS7003;64741;41.730;44.788;2022-12-07T05:19:54;4.6;4;2.8
76045;PMS7003;64741;41.730;44.788;2022-12-07T05:24:54;3.6;3.6;2
76045;PMS7003;64741;41.730;44.788;2022-12-07T05:29:54;4.6;3.4;2.6
76045;PMS7003;64741;41.730;44.788;2022-12-07T05:34:56;4.2;3;2.4
76045;PMS7003;64741;41.730;44.788;2022-12-07T05:39:52;3.8;3.2;2.4
76045;PMS7003;64741;41.730;44.788;2022-12-07T05:44:54;3.8;3.8;2.6
76045;PMS7003;64741;41.730;44.788;2022-12-07T05:49:54;4.6;3.4;2.4
76045;PMS7003;64741;41.730;44.788;2022-12-07T05:54:56;3.6;3;2
76045;PMS7003;64741;41.730;44.788;2022-12-07T05:59:52;3.6;3;1.8
76045;PMS7003;64741;41.730;44.788;2022-12-07T06:04:50;3;2.6;2
76045;PMS7003;64741;41.730;44.788;2022-12-07T06:09:52;3.6;2.6;1.6
76045;PMS7003;64741;41.730;44.788;2022-12-07T06:14:50;3.2;3;2.6
76045;PMS7003;64741;41.730;44.788;2022-12-07T06:20:00;3;2.8;1.6
76045;PMS7003;64741;41.730;44.788;2022-12-07T06:25:00;4.4;4.2;2.8
76045;PMS7003;64741;41.730;44.788;2022-12-07T06:29:58;3.6;3.2;2.4
76045;PMS7003;64741;41.730;44.788;2022-12-07T06:34:54;3.8;2.8;2
76045;PMS7003;64741;41.730;44.788;2022-12-07T06:39:56;3.8;2.8;1.8
76045;PMS7003;64741;41.730;44.788;2022-12-07T06:44:54;4;3.2;2.2
76045;PMS7003;64741;41.730;44.788;2022-12-07T06:49:54;3.6;3.4;2.4
76045;PMS7003;64741;41.730;44.788;2022-12-07T06:54:52;4;3.4;2.2
76045;PMS7003;64741;41.730;44.788;2022-12-07T06:59:52;3.2;2.4;1.6
76045;PMS7003;64741;41.730;44.788;2022-12-07T07:04:54;4.4;3;1.8
76045;PMS7003;64741;41.730;44.788;2022-12-07T07:09:54;3.2;3;1.8
76045;PMS7003;64741;41.730;44.788;2022-12-07T07:14:52;3.8;3.2;2
76045;PMS7003;64741;41.730;44.788;2022-12-07T07:19:52;4.6;3.4;2.2
76045;PMS7003;64741;41.730;44.788;2022-12-07T07:24:52;3.8;3.6;2.6
76045;PMS7003;64741;41.730;44.788;2022-12-07T07:29:44;5.8;3.8;2.4
76045;PMS7003;64741;41.730;44.788;2022-12-07T07:34:56;4.6;3.6;2.4
76045;PMS7003;64741;41.730;44.788;2022-12-07T07:39:54;3.8;3.6;2.4
76045;PMS7003;64741;41.730;44.788;2022-12-07T07:44:54;5;3.6;2.6
76045;PMS7003;64741;41.730;44.788;2022-12-07T07:49:54;4;3.6;2.2
76045;PMS7003;64741;41.730;44.788;2022-12-07T07:54:54;3.8;2.8;2
76045;PMS7003;64741;41.730;44.788;2022-12-07T07:59:54;3.6;3.2;2
76045;PMS7003;64741;41.730;44.788;2022-12-07T08:04:58;4.6;2.8;1.8
76045;PMS7003;64741;41.730;44.788;2022-12-07T08:09:52;3.4;3;2
76045;PMS7003;64741;41.730;44.788;2022-12-07T08:14:50;3.6;3.4;2.2
76045;PMS7003;64741;41.730;44.788;2022-12-07T08:19:54;2.8;2.8;1.8
76045;PMS7003;64741;41.730;44.788;2022-12-07T08:24:58;5.6;3.2;2.2
76045;PMS7003;64741;41.730;44.788;2022-12-07T08:29:54;4.2;3;2
76045;PMS7003;64741;41.730;44.788;2022-12-07T08:34:42;3.4;2.8;1.6
76045;PMS7003;64741;41.730;44.788;2022-12-07T08:39:54;2.8;2;1
76045;PMS7003;64741;41.730;44.788;2022-12-07T08:44:56;2.8;2;1.4
76045;PMS7003;64741;41.730;44.788;2022-12-07T08:49:58;2.4;2.2;1.2
76045;PMS7003;64741;41.730;44.788;2022-12-07T08:54:58;2.2;1.6;1.2
76045;PMS7003;64741;41.730;44.788;2022-12-07T08:59:54;1.8;1.8;0.6
76045;PMS7003;64741;41.730;44.788;2022-12-07T09:04:54;2.8;2;1.3
76045;PMS7003;64741;41.730;44.788;2022-12-07T09:09:54;4.4;3.8;3.2
76045;PMS7003;64741;41.730;44.788;2022-12-07T09:14:52;7.2;5.2;3.8
76045;PMS7003;64741;41.730;44.788;2022-12-07T09:19:54;5.2;4.4;3
76045;PMS7003;64741;41.730;44.788;2022-12-07T09:24:54;4.8;4;3
76045;PMS7003;64741;41.730;44.788;2022-12-07T09:29:56;4.4;4;2.8
76045;PMS7003;64741;41.730;44.788;2022-12-07T09:34:54;4.8;3.6;2.4
76045;PMS7003;64741;41.730;44.788;2022-12-07T09:39:42;4.4;3.8;3
76045;PMS7003;64741;41.730;44.788;2022-12-07T09:44:40;4;3.4;2.4
76045;PMS7003;64741;41.730;44.788;2022-12-07T09:49:52;4.4;3.4;2.4
76045;PMS7003;64741;41.730;44.788;2022-12-07T09:54:54;4.2;3.4;2.4
76045;PMS7003;64741;41.730;44.788;2022-12-07T09:59:57;4.8;3.4;2.4
76045;PMS7003;64741;41.730;44.788;2022-12-07T10:04:58;4;3.8;2.4
76045;PMS7003;64741;41.730;44.788;2022-12-07T10:09:56;5;4.6;3.2
76045;PMS7003;64741;41.730;44.788;2022-12-07T10:14:53;5.6;4;2.4
76045;PMS7003;64741;41.730;44.788;2022-12-07T10:19:59;4.2;4;3
76045;PMS7003;64741;41.730;44.788;2022-12-07T10:24:54;5.8;4.6;2.8
76045;PMS7003;64741;41.730;44.788;2022-12-07T10:29:56;4.6;3.4;2.8
76045;PMS7003;64741;41.730;44.788;2022-12-07T10:35:32;4.2;3.8;2.4
76045;PMS7003;64741;41.730;44.788;2022-12-07T10:39:56;5.2;3.8;3
76045;PMS7003;64741;41.730;44.788;2022-12-07T10:45:06;4.6;4.4;3.4
76045;PMS7003;64741;41.730;44.788;2022-12-07T10:51:00;4.4;3.8;3
76045;PMS7003;64741;41.730;44.788;2022-12-07T10:55:01;5.6;4.6;3.4
76045;PMS7003;64741;41.730;44.788;2022-12-07T10:59:59;4.8;3.8;3.2
76045;PMS7003;64741;41.730;44.788;2022-12-07T11:04:56;5.2;4.8;3.2
76045;PMS7003;64741;41.730;44.788;2022-12-07T11:09:58;6;4.4;3.4
76045;PMS7003;64741;41.730;44.788;2022-12-07T11:14:55;4.2;3.6;2.2
76045;PMS7003;64741;41.730;44.788;2022-12-07T11:20:00;3.8;3.6;2
76045;PMS7003;64741;41.730;44.788;2022-12-07T11:24:57;5.4;4.6;2.6
76045;PMS7003;64741;41.730;44.788;2022-12-07T11:29:55;5;3.8;2.8
76045;PMS7003;64741;41.730;44.788;2022-12-07T11:34:56;3;2.8;2.2
76045;PMS7003;64741;41.730;44.788;2022-12-07T11:39:55;3.8;3.8;2.4
76045;PMS7003;64741;41.730;44.788;2022-12-07T11:44:55;4.2;3.2;2.2
76045;PMS7003;64741;41.730;44.788;2022-12-07T11:49:58;3.8;2.8;2.2
76045;PMS7003;64741;41.730;44.788;2022-12-07T11:54:54;4;3.2;2.6
76045;PMS7003;64741;41.730;44.788;2022-12-07T11:59:56;3.8;3.6;2.4
76045;PMS7003;64741;41.730;44.788;2022-12-07T12:04:51;2.8;2.6;2
76045;PMS7003;64741;41.730;44.788;2022-12-07T12:09:55;5.6;3;2
76045;PMS7003;64741;41.730;44.788;2022-12-07T12:14:58;7.2;5.8;4.6
76045;PMS7003;64741;41.730;44.788;2022-12-07T12:19:58;7.6;6.6;4.6
76045;PMS7003;64741;41.730;44.788;2022-12-07T12:24:51;7.4;6.2;4.8
76045;PMS7003;64741;41.730;44.788;2022-12-07T12:29:55;8;7.2;5.4
76045;PMS7003;64741;41.730;44.788;2022-12-07T12:34:58;9.6;7.4;5.6
76045;PMS7003;64741;41.730;44.788;2022-12-07T12:41:01;9;8;5.8
76045;PMS7003;64741;41.730;44.788;2022-12-07T12:45:04;11.2;9.4;6.6
76045;PMS7003;64741;41.730;44.788;2022-12-07T12:50:25;10;9.4;7.4
76045;PMS7003;64741;41.730;44.788;2022-12-07T12:54:59;13.2;11;8.6
76045;PMS7003;64741;41.730;44.788;2022-12-07T12:59:57;13.6;11.4;9.2
76045;PMS7003;64741;41.730;44.788;2022-12-07T13:04:59;12.2;10;8.2
76045;PMS7003;64741;41.730;44.788;2022-12-07T13:09:56;14.8;12.8;9
76045;PMS7003;64741;41.730;44.788;2022-12-07T13:14:57;15.8;12.8;9.2
76045;PMS7003;64741;41.730;44.788;2022-12-07T13:19:53;14.4;12.4;10
76045;PMS7003;64741;41.730;44.788;2022-12-07T13:24:55;14.8;12.4;9.8
76045;PMS7003;64741;41.730;44.788;2022-12-07T13:29:53;11.8;11.4;9
76045;PMS7003;64741;41.730;44.788;2022-12-07T13:34:55;16.2;13.6;10
76045;PMS7003;64741;41.730;44.788;2022-12-07T13:39:53;14.4;12.4;9.8
76045;PMS7003;64741;41.730;44.788;2022-12-07T13:44:57;13;11.4;8.6
76045;PMS7003;64741;41.730;44.788;2022-12-07T13:49:57;12.2;11.4;8.4
76045;PMS7003;64741;41.730;44.788;2022-12-07T13:54:59;12.4;10;7.6
76045;PMS7003;64741;41.730;44.788;2022-12-07T13:59:54;10;8.4;6.4
76045;PMS7003;64741;41.730;44.788;2022-12-07T14:05:05;11.4;10.2;7.8
76045;PMS7003;64741;41.730;44.788;2022-12-07T14:09:54;10.5;9.3;6.8
76045;PMS7003;64741;41.730;44.788;2022-12-07T14:14:53;10.8;9.2;7.2
76045;PMS7003;64741;41.730;44.788;2022-12-07T14:19:50;15.5;13.8;9.8
76045;PMS7003;64741;41.730;44.788;2022-12-07T14:24:58;13.2;11.6;8.8
76045;PMS7003;64741;41.730;44.788;2022-12-07T14:29:56;12.6;11.4;8.2
76045;PMS7003;64741;41.730;44.788;2022-12-07T14:34:53;12.6;10.6;8
76045;PMS7003;64741;41.730;44.788;2022-12-07T14:39:44;12.2;10.2;7.4
76045;PMS7003;64741;41.730;44.788;2022-12-07T14:44:52;11.4;9.2;7.2
76045;PMS7003;64741;41.730;44.788;2022-12-07T14:49:54;10.8;9.2;6.8
76045;PMS7003;64741;41.730;44.788;2022-12-07T14:54:52;9.8;7.8;5.8
76045;PMS7003;64741;41.730;44.788;2022-12-07T14:59:54;9.2;8.4;6.6
76045;PMS7003;64741;41.730;44.788;2022-12-07T15:04:56;8.8;7.8;6
76045;PMS7003;64741;41.730;44.788;2022-12-07T15:09:57;8.2;7.2;5.4
76045;PMS7003;64741;41.730;44.788;2022-12-07T15:14:55;9.6;8.2;6.2
76045;PMS7003;64741;41.730;44.788;2022-12-07T15:19:55;8.2;7.2;5.6
76045;PMS7003;64741;41.730;44.788;2022-12-07T15:24:44;8.4;6.2;5
76045;PMS7003;64741;41.730;44.788;2022-12-07T15:29:56;9.2;7.2;5.4
76045;PMS7003;64741;41.730;44.788;2022-12-07T15:34:58;6.8;6.2;4.6
76045;PMS7003;64741;41.730;44.788;2022-12-07T15:39:55;6;4.6;3.4
76045;PMS7003;64741;41.730;44.788;2022-12-07T15:44:56;8.2;7;5.2
76045;PMS7003;64741;41.730;44.788;2022-12-07T15:49:57;7.4;6.4;4.8
76045;PMS7003;64741;41.730;44.788;2022-12-07T15:54:57;7.4;6;4.2
76045;PMS7003;64741;41.730;44.788;2022-12-07T15:59:55;7;5.8;4.6
76045;PMS7003;64741;41.730;44.788;2022-12-07T16:04:45;5.6;4.6;3.4
76045;PMS7003;64741;41.730;44.788;2022-12-07T16:09:55;6.2;5;3.8
76045;PMS7003;64741;41.730;44.788;2022-12-07T16:14:53;4.4;4.4;3
76045;PMS7003;64741;41.730;44.788;2022-12-07T16:19:55;5.8;4.6;3.6
76045;PMS7003;64741;41.730;44.788;2022-12-07T16:24:59;5.6;4.2;2.8
76045;PMS7003;64741;41.730;44.788;2022-12-07T16:29:57;4.4;4;2.8
76045;PMS7003;64741;41.730;44.788;2022-12-07T16:34:55;4.4;4;2.4
76045;PMS7003;64741;41.730;44.788;2022-12-07T16:39:45;4.4;3.8;2.4
76045;PMS7003;64741;41.730;44.788;2022-12-07T16:44:51;4;3;2.2
76045;PMS7003;64741;41.730;44.788;2022-12-07T16:49:59;3.2;3;2.4
76045;PMS7003;64741;41.730;44.788;2022-12-07T16:54:57;4;2.8;2
76045;PMS7003;64741;41.730;44.788;2022-12-07T16:59:59;3.2;3;2.2
76045;PMS7003;64741;41.730;44.788;2022-12-07T17:04:53;3.2;2.8;2.2
76045;PMS7003;64741;41.730;44.788;2022-12-07T17:09:53;2.4;2;1.4
76045;PMS7003;64741;41.730;44.788;2022-12-07T17:14:41;3.2;2.4;1.8
76045;PMS7003;64741;41.730;44.788;2022-12-07T17:19:55;3.4;2.6;1.6
76045;PMS7003;64741;41.730;44.788;2022-12-07T17:24:53;3.8;3.4;2.4
76045;PMS7003;64741;41.730;44.788;2022-12-07T17:29:55;3;2.2;1.4
76045;PMS7003;64741;41.730;44.788;2022-12-07T17:34:41;3;1.8;1.4
76045;PMS7003;64741;41.730;44.788;2022-12-07T17:39:59;3.6;2.6;1.4
76045;PMS7003;64741;41.730;44.788;2022-12-07T17:44:55;2.2;2;1.2
76045;PMS7003;64741;41.730;44.788;2022-12-07T17:49:57;3.4;2.8;1.8
76045;PMS7003;64741;41.730;44.788;2022-12-07T17:54:55;3.2;2.6;2
76045;PMS7003;64741;41.730;44.788;2022-12-07T17:59:53;4.4;3.8;2.8
76045;PMS7003;64741;41.730;44.788;2022-12-07T18:04:55;6.4;5.4;4.2
76045;PMS7003;64741;41.730;44.788;2022-12-07T18:09:55;6.6;5.6;4.2
76045;PMS7003;64741;41.730;44.788;2022-12-07T18:14:55;7.2;5.8;4.2
76045;PMS7003;64741;41.730;44.788;2022-12-07T18:19:57;7.8;6.4;4.8
76045;PMS7003;64741;41.730;44.788;2022-12-07T18:24:55;7.2;6.6;5.2
76045;PMS7003;64741;41.730;44.788;2022-12-07T18:29:53;6.4;5.2;4
76045;PMS7003;64741;41.730;44.788;2022-12-07T18:34:55;6.4;5.8;4.2
76045;PMS7003;64741;41.730;44.788;2022-12-07T18:39:55;6.4;5.6;3.6
76045;PMS7003;64741;41.730;44.788;2022-12-07T18:44:57;6.6;5.4;4
76045;PMS7003;64741;41.730;44.788;2022-12-07T18:49:41;7.4;5.6;4
76045;PMS7003;64741;41.730;44.788;2022-12-07T18:54:57;5.8;5.4;3.8
76045;PMS7003;64741;41.730;44.788;2022-12-07T18:59:55;5.6;5.4;4
76045;PMS7003;64741;41.730;44.788;2022-12-07T19:04:59;5.6;4.6;3.6
76045;PMS7003;64741;41.730;44.788;2022-12-07T19:09:55;4.8;4.6;3.4
76045;PMS7003;64741;41.730;44.788;2022-12-07T19:14:53;6;5.2;4
76045;PMS7003;64741;41.730;44.788;2022-12-07T19:19:21;6;4.6;3.4
76045;PMS7003;64741;41.730;44.788;2022-12-07T19:24:55;5.6;5;3.8
76045;PMS7003;64741;41.730;44.788;2022-12-07T19:29:59;6;5.3;3.3
76045;PMS7003;64741;41.730;44.788;2022-12-07T19:34:59;6.4;5.8;3.8
76045;PMS7003;64741;41.730;44.788;2022-12-07T19:39:55;4.4;3.6;2.4
76045;PMS7003;64741;41.730;44.788;2022-12-07T19:44:53;5.4;4.6;3.2
76045;PMS7003;64741;41.730;44.788;2022-12-07T19:49:55;5.2;5;3.4
76045;PMS7003;64741;41.730;44.788;2022-12-07T19:54:53;5;4.2;2.8
76045;PMS7003;64741;41.730;44.788;2022-12-07T19:59:57;4.8;4.2;2.8
76045;PMS7003;64741;41.730;44.788;2022-12-07T20:04:55;4.2;4.2;3
76045;PMS7003;64741;41.730;44.788;2022-12-07T20:09:59;5.8;4.2;2.8
76045;PMS7003;64741;41.730;44.788;2022-12-07T20:14:55;4;3.6;2.8
76045;PMS7003;64741;41.730;44.788;2022-12-07T20:19:57;4.8;4.4;3.2
76045;PMS7003;64741;41.730;44.788;2022-12-07T20:24:41;5;4.2;2.8
76045;PMS7003;64741;41.730;44.788;2022-12-07T20:29:53;4.8;4;3
76045;PMS7003;64741;41.730;44.788;2022-12-07T20:34:53;4.8;4.4;3.4
76045;PMS7003;64741;41.730;44.788;2022-12-07T20:39:55;4.8;4.2;3.2
76045;PMS7003;64741;41.730;44.788;2022-12-07T20:44:57;4.8;4.2;3
76045;PMS7003;64741;41.730;44.788;2022-12-07T20:49:57;4.4;3.4;2.4
76045;PMS7003;64741;41.730;44.788;2022-12-07T20:54:53;5.2;5;3
76045;PMS7003;64741;41.730;44.788;2022-12-07T20:59:53;5.4;5.4;2.8
76045;PMS7003;64741;41.730;44.788;2022-12-07T21:04:43;5.4;4;3.2
76045;PMS7003;64741;41.730;44.788;2022-12-07T21:09:55;4.8;4.4;3.2
76045;PMS7003;64741;41.730;44.788;2022-12-07T21:14:59;4.4;3.4;2
76045;PMS7003;64741;41.730;44.788;2022-12-07T21:19:57;5.2;4.2;2.6
76045;PMS7003;64741;41.730;44.788;2022-12-07T21:24:59;3.8;3.4;2.4
76045;PMS7003;64741;41.730;44.788;2022-12-07T21:29:57;5.2;4.2;3
76045;PMS7003;64741;41.730;44.788;2022-12-07T21:34:57;4.4;3.6;2.6
76045;PMS7003;64741;41.730;44.788;2022-12-07T21:39:55;4.4;4;2.8
76045;PMS7003;64741;41.730;44.788;2022-12-07T21:44:51;4.6;4.2;2.6
76045;PMS7003;64741;41.730;44.788;2022-12-07T21:49:51;5.6;4.4;3.2
76045;PMS7003;64741;41.730;44.788;2022-12-07T21:54:53;5;4;2.8
76045;PMS7003;64741;41.730;44.788;2022-12-07T21:59:53;4.6;3.6;2.4
76045;PMS7003;64741;41.730;44.788;2022-12-07T22:04:55;5.6;5;3.2
76045;PMS7003;64741;41.730;44.788;2022-12-07T22:09:53;4.8;4;2.6
76045;PMS7003;64741;41.730;44.788;2022-12-07T22:14:47;5.4;4.2;2.4
76045;PMS7003;64741;41.730;44.788;2022-12-07T22:19:51;4.4;4;3
76045;PMS7003;64741;41.730;44.788;2022-12-07T22:24:39;4.6;4.4;2.6
76045;PMS7003;64741;41.730;44.788;2022-12-07T22:29:53;4;3.6;2.6
76045;PMS7003;64741;41.730;44.788;2022-12-07T22:34:51;5;3.4;2.4
76045;PMS7003;64741;41.730;44.788;2022-12-07T22:39:53;2.6;2.4;1.8
76045;PMS7003;64741;41.730;44.788;2022-12-07T22:44:51;4.2;2.8;2.2
76045;PMS7003;64741;41.730;44.788;2022-12-07T22:49:53;4.4;4;2.4
76045;PMS7003;64741;41.730;44.788;2022-12-07T22:54:53;3.8;3;2.4
76045;PMS7003;64741;41.730;44.788;2022-12-07T22:59:51;4.2;3.4;2.2
76045;PMS7003;64741;41.730;44.788;2022-12-07T23:04:49;4.8;4;2.8
76045;PMS7003;64741;41.730;44.788;2022-12-07T23:09:49;3.8;3.2;2.2
76045;PMS7003;64741;41.730;44.788;2022-12-07T23:14:51;3.6;3.4;2.2
76045;PMS7003;64741;41.730;44.788;2022-12-07T23:19:53;4;3.8;2.4
76045;PMS7003;64741;41.730;44.788;2022-12-07T23:24:51;4.8;3.6;2.2
76045;PMS7003;64741;41.730;44.788;2022-12-07T23:29:49;4.8;4;2.6
76045;PMS7003;64741;41.730;44.788;2022-12-07T23:34:53;5.4;4.6;2.8
76045;PMS7003;64741;41.730;44.788;2022-12-07T23:39:51;4.6;4.2;2.6
76045;PMS7003;64741;41.730;44.788;2022-12-07T23:44:53;4.4;4;2.4
76045;PMS7003;64741;41.730;44.788;2022-12-07T23:49:49;5.4;4.2;2.8
76045;PMS7003;64741;41.730;44.788;2022-12-07T23:54:51;4;3.2;2.8
76045;PMS7003;64741;41.730;44.788;2022-12-07T23:59:51;4.6;4.4;2.4
